Time;durP1;ratioP1;P1;durP2;ratioP2;P2;SDS_P1;SDS_P2;PMS_P1;PMS_P2;Temp;Humidity;BMP_temperature;BMP_pressure;BME280_temperature;BME280_humidity;BME280_pressure;Samples;Min_cycle;Max_cycle;Signal;HPM_P1;HPM_P2
2022/06/03 00:01:02;;;;;;;1.20;1.10;;;20.10;48.00;;;;;;4940990;29;20035;-78
2022/06/03 00:03:47;;;;;;;1.95;1.40;;;20.10;48.00;;;;;;4957756;28;20032;-77
2022/06/03 00:06:30;;;;;;;1.40;1.30;;;20.10;48.10;;;;;;4942194;29;20024;-78
2022/06/03 00:09:30;;;;;;;1.38;1.27;;;20.00;48.10;;;;;;4940241;29;20035;-78
2022/06/03 00:12:14;;;;;;;1.35;1.25;;;20.00;48.10;;;;;;4938359;29;20035;-78
2022/06/03 00:15:19;;;;;;;1.30;1.20;;;20.00;48.10;;;;;;4954687;29;20107;-78
2022/06/03 00:18:14;;;;;;;1.30;1.20;;;19.90;48.30;;;;;;4921212;29;20040;-78
2022/06/03 00:20:54;;;;;;;1.10;1.10;;;19.90;48.30;;;;;;4901819;29;20027;-78
2022/06/03 00:23:37;;;;;;;3.00;1.58;;;19.90;48.30;;;;;;4938889;29;20620;-78
2022/06/03 00:26:27;;;;;;;1.65;1.35;;;19.80;48.30;;;;;;4954366;29;20028;-78
2022/06/03 00:29:24;;;;;;;2.17;1.30;;;19.80;48.40;;;;;;4954260;29;20422;-78
2022/06/03 00:32:08;;;;;;;1.45;1.23;;;19.80;48.50;;;;;;4954527;29;20106;-78
2022/06/03 00:35:01;;;;;;;1.42;1.33;;;19.70;48.40;;;;;;4938826;29;20027;-78
2022/06/03 00:37:49;;;;;;;1.38;1.27;;;19.70;48.60;;;;;;4938822;29;20425;-77
2022/06/03 00:40:28;;;;;;;1.85;1.50;;;19.70;48.60;;;;;;4953247;28;20032;-78
2022/06/03 00:43:14;;;;;;;1.38;1.27;;;19.60;48.60;;;;;;4939221;29;20020;-78
2022/06/03 00:46:01;;;;;;;1.50;1.40;;;19.60;48.70;;;;;;4937982;29;20046;-78
2022/06/03 00:49:05;;;;;;;1.63;1.52;;;19.60;48.70;;;;;;4937501;29;20030;-78
2022/06/03 00:51:56;;;;;;;1.70;1.50;;;19.50;48.80;;;;;;4932676;29;20122;-78
2022/06/03 00:55:02;;;;;;;1.65;1.40;;;19.50;48.90;;;;;;4953566;29;20032;-78
2022/06/03 00:57:46;;;;;;;2.00;1.42;;;19.50;48.90;;;;;;4923856;29;20476;-77
2022/06/03 01:00:28;;;;;;;1.58;1.35;;;19.50;48.80;;;;;;4938507;29;20082;-78
2022/06/03 01:03:12;;;;;;;1.42;1.33;;;19.40;49.00;;;;;;4938738;29;20032;-78
2022/06/03 01:05:51;;;;;;;1.40;1.30;;;19.40;49.00;;;;;;4953311;29;20035;-78
2022/06/03 01:08:38;;;;;;;1.92;1.48;;;19.30;49.00;;;;;;4954538;29;20028;-78
2022/06/03 01:11:10;;;;;;;1.60;1.50;;;19.30;49.00;;;;;;4953785;29;20469;-78
2022/06/03 01:13:41;;;;;;;1.63;1.52;;;19.30;49.00;;;;;;4938684;29;20050;-78
2022/06/03 01:16:13;;;;;;;1.35;1.25;;;19.30;49.10;;;;;;4939171;29;20035;-78
2022/06/03 01:18:57;;;;;;;1.70;1.60;;;19.20;49.10;;;;;;4938475;29;20027;-78
2022/06/03 01:21:42;;;;;;;1.52;1.40;;;19.20;49.20;;;;;;4953846;29;20091;-78
2022/06/03 01:24:32;;;;;;;1.60;1.50;;;19.20;49.20;;;;;;4937287;29;20111;-78
2022/06/03 01:27:07;;;;;;;1.90;1.60;;;19.10;49.30;;;;;;4937451;29;20365;-78
2022/06/03 01:29:35;;;;;;;;;;;19.10;49.30;;;;;;4953742;29;20027;-78
2022/06/03 01:32:26;;;;;;;1.45;1.35;;;19.10;49.30;;;;;;4953024;29;20370;-78
2022/06/03 01:35:24;;;;;;;1.70;1.40;;;19.10;49.40;;;;;;4953191;29;20183;-78
2022/06/03 01:37:58;;;;;;;1.45;1.35;;;19.00;49.40;;;;;;4909452;29;20111;-78
2022/06/03 01:40:43;;;;;;;1.92;1.52;;;19.00;49.50;;;;;;4938376;29;20031;-78
2022/06/03 01:43:34;;;;;;;1.65;1.55;;;19.00;49.60;;;;;;4954854;29;20035;-79
2022/06/03 01:46:26;;;;;;;1.60;1.50;;;19.00;49.60;;;;;;4942030;29;20516;-78
2022/06/03 01:48:59;;;;;;;1.48;1.38;;;18.90;49.70;;;;;;4956554;29;20028;-78
2022/06/03 01:51:34;;;;;;;1.50;1.40;;;18.90;49.70;;;;;;4938210;29;20042;-78
2022/06/03 01:54:03;;;;;;;1.60;1.50;;;18.80;49.70;;;;;;4937651;29;20543;-78
2022/06/03 01:56:48;;;;;;;1.60;1.50;;;18.80;49.70;;;;;;4952851;29;20051;-78
2022/06/03 01:59:38;;;;;;;1.70;1.58;;;18.80;49.90;;;;;;4953334;29;20102;-78
2022/06/03 02:02:41;;;;;;;1.75;1.60;;;18.80;49.80;;;;;;4952664;29;20024;-78
2022/06/03 02:05:35;;;;;;;1.67;1.48;;;18.80;50.00;;;;;;4936585;29;20027;-78
2022/06/03 02:08:28;;;;;;;1.35;1.25;;;18.70;49.90;;;;;;4952769;29;20036;-78
2022/06/03 02:11:18;;;;;;;1.95;1.67;;;18.70;50.00;;;;;;4939743;29;20107;-78
2022/06/03 02:14:00;;;;;;;1.95;1.65;;;18.70;50.10;;;;;;4937787;29;20462;-78
2022/06/03 02:16:54;;;;;;;1.95;1.55;;;18.60;50.10;;;;;;4937686;29;20512;-78
2022/06/03 02:19:48;;;;;;;1.50;1.40;;;18.60;50.10;;;;;;4936503;29;20039;-78
2022/06/03 02:22:23;;;;;;;1.67;1.55;;;18.60;50.10;;;;;;4952288;29;20031;-78
2022/06/03 02:25:03;;;;;;;1.52;1.42;;;18.60;50.10;;;;;;4951843;29;20055;-78
2022/06/03 02:28:07;;;;;;;1.70;1.50;;;18.50;50.10;;;;;;4952171;29;20027;-78
2022/06/03 02:30:45;;;;;;;1.85;1.50;;;18.50;50.30;;;;;;4936114;29;20024;-77
2022/06/03 02:33:38;;;;;;;1.83;1.63;;;18.40;50.30;;;;;;4937287;29;20479;-77
2022/06/03 02:36:41;;;;;;;1.98;1.60;;;18.50;50.30;;;;;;4936081;29;20040;-77
2022/06/03 02:39:13;;;;;;;2.28;1.70;;;18.40;50.40;;;;;;4937239;29;20040;-77
2022/06/03 02:42:06;;;;;;;2.08;1.60;;;18.40;50.30;;;;;;4951987;29;20028;-78
2022/06/03 02:44:46;;;;;;;2.17;1.70;;;18.40;50.50;;;;;;4936940;29;20031;-78
2022/06/03 02:47:46;;;;;;;2.70;1.80;;;18.30;50.40;;;;;;4936920;29;20535;-78
2022/06/03 02:51:03;;;;;;;1.77;1.63;;;18.30;50.50;;;;;;4951786;29;20472;-77
2022/06/03 02:53:48;;;;;;;1.83;1.63;;;18.30;50.50;;;;;;4896474;29;20080;-78
2022/06/03 02:56:51;;;;;;;1.63;1.52;;;18.30;50.50;;;;;;4881127;29;20044;-78
2022/06/03 02:59:36;;;;;;;1.80;1.70;;;18.30;50.50;;;;;;4851131;29;20053;-78
2022/06/03 03:02:23;;;;;;;1.63;1.52;;;18.20;50.60;;;;;;4930901;29;20465;-77
2022/06/03 03:05:21;;;;;;;1.70;1.60;;;18.20;50.60;;;;;;4936040;29;20032;-78
2022/06/03 03:08:07;;;;;;;2.00;1.70;;;18.20;50.70;;;;;;4935187;29;20034;-77
2022/06/03 03:11:18;;;;;;;1.70;1.60;;;18.20;50.80;;;;;;4936353;29;20027;-78
2022/06/03 03:14:03;;;;;;;1.70;1.60;;;18.10;50.80;;;;;;4931964;29;20043;-78
2022/06/03 03:16:58;;;;;;;;;;;18.10;50.90;;;;;;4951696;29;20036;-78
2022/06/03 03:20:01;;;;;;;1.50;1.40;;;18.10;50.70;;;;;;4935122;29;19913;-77
2022/06/03 03:22:56;;;;;;;1.55;1.45;;;18.10;50.90;;;;;;4936907;29;20026;-78
2022/06/03 03:25:31;;;;;;;2.00;1.80;;;18.00;51.00;;;;;;4935449;29;20143;-78
2022/06/03 03:28:34;;;;;;;2.05;1.60;;;18.00;50.90;;;;;;4936339;29;20698;-78
2022/06/03 03:31:34;;;;;;;1.67;1.58;;;18.00;51.10;;;;;;4951535;29;20483;-77
2022/06/03 03:34:15;;;;;;;2.70;1.95;;;18.00;51.10;;;;;;4937072;29;20035;-77
2022/06/03 03:37:05;;;;;;;1.60;1.50;;;18.00;51.10;;;;;;4936565;29;20038;-77
2022/06/03 03:40:10;;;;;;;2.10;1.63;;;18.00;51.20;;;;;;4951646;29;20050;-77
2022/06/03 03:43:04;;;;;;;2.17;1.70;;;17.90;51.20;;;;;;4936295;29;20047;-78
2022/06/03 03:45:52;;;;;;;1.85;1.52;;;17.90;51.20;;;;;;4951013;29;20477;-77
2022/06/03 03:48:48;;;;;;;1.60;1.50;;;17.90;51.20;;;;;;4951283;29;20457;-78
2022/06/03 03:51:55;;;;;;;1.92;1.50;;;17.90;51.20;;;;;;4936305;29;20024;-77
2022/06/03 03:54:39;;;;;;;1.58;1.48;;;17.80;51.30;;;;;;4918897;29;20122;-78
2022/06/03 03:57:33;;;;;;;1.70;1.60;;;17.80;51.20;;;;;;4936354;29;20087;-78
2022/06/03 04:00:21;;;;;;;2.10;1.48;;;17.80;51.30;;;;;;4934772;29;20027;-78
2022/06/03 04:03:20;;;;;;;1.95;1.60;;;17.80;51.40;;;;;;4936136;29;20032;-78
2022/06/03 04:06:23;;;;;;;2.42;1.67;;;17.80;51.40;;;;;;4935363;29;20082;-77
2022/06/03 04:09:09;;;;;;;2.20;1.70;;;17.80;51.50;;;;;;4937128;29;20440;-78
2022/06/03 04:11:50;;;;;;;1.52;1.42;;;17.80;51.50;;;;;;4951380;29;20365;-78
2022/06/03 04:14:38;;;;;;;1.90;1.70;;;17.80;51.50;;;;;;4951148;28;20032;-78
2022/06/03 04:17:45;;;;;;;1.65;1.55;;;17.70;51.40;;;;;;4955069;29;20027;-78
2022/06/03 04:20:43;;;;;;;1.58;1.48;;;17.70;51.60;;;;;;4938789;29;20119;-78
2022/06/03 04:23:27;;;;;;;1.90;1.70;;;17.70;51.60;;;;;;4939597;29;20055;-77
2022/06/03 04:26:20;;;;;;;1.60;1.50;;;17.70;51.60;;;;;;4955353;29;20433;-78
2022/06/03 04:28:51;;;;;;;2.05;1.75;;;17.70;51.60;;;;;;4940591;29;20032;-78
2022/06/03 04:31:59;;;;;;;1.95;1.75;;;17.70;51.60;;;;;;4956280;29;20027;-78
2022/06/03 04:35:03;;;;;;;1.52;1.42;;;17.70;51.70;;;;;;4947497;29;20070;-78
2022/06/03 04:37:56;;;;;;;1.50;1.35;;;17.70;51.70;;;;;;4942343;29;20131;-77
2022/06/03 04:40:40;;;;;;;1.88;1.70;;;17.60;51.70;;;;;;4940064;29;20047;-79
2022/06/03 04:43:12;;;;;;;1.63;1.52;;;17.60;51.70;;;;;;4939747;29;20028;-78
2022/06/03 04:45:56;;;;;;;1.67;1.58;;;17.60;51.80;;;;;;4938864;29;20031;-77
2022/06/03 04:48:31;;;;;;;1.88;1.60;;;17.60;51.80;;;;;;4955110;29;20030;-77
2022/06/03 04:51:28;;;;;;;2.00;1.70;;;17.60;51.80;;;;;;4938855;29;20020;-76
2022/06/03 04:54:12;;;;;;;1.70;1.60;;;17.60;51.90;;;;;;4937566;29;20039;-76
2022/06/03 04:57:14;;;;;;;1.88;1.70;;;17.60;51.90;;;;;;4939060;29;20035;-75
2022/06/03 05:00:09;;;;;;;1.70;1.60;;;17.50;51.90;;;;;;4954044;29;20376;-77
2022/06/03 05:02:54;;;;;;;;;;;17.50;52.00;;;;;;4938107;29;20042;-76
2022/06/03 05:05:38;;;;;;;1.63;1.52;;;17.50;51.80;;;;;;4938382;29;19917;-77
2022/06/03 05:08:19;;;;;;;1.70;1.60;;;17.50;51.90;;;;;;4938127;29;20374;-77
2022/06/03 05:11:22;;;;;;;1.75;1.42;;;17.50;51.90;;;;;;4953641;29;20074;-77
2022/06/03 05:14:12;;;;;;;2.50;2.10;;;17.50;52.10;;;;;;4953109;29;20030;-77
2022/06/03 05:16:53;;;;;;;1.98;1.70;;;17.40;52.00;;;;;;4937271;29;20047;-77
2022/06/03 05:19:19;;;;;;;1.90;1.70;;;17.40;52.10;;;;;;4953885;29;20475;-77
2022/06/03 05:21:50;;;;;;;2.28;1.92;;;17.40;52.10;;;;;;4952978;29;20111;-78
2022/06/03 05:24:16;;;;;;;2.00;1.80;;;17.40;52.10;;;;;;4939490;29;20135;-78
2022/06/03 05:27:09;;;;;;;1.92;1.73;;;17.40;52.10;;;;;;4938090;29;20437;-78
2022/06/03 05:29:52;;;;;;;2.00;1.80;;;17.40;52.20;;;;;;4954787;29;20020;-77
2022/06/03 05:32:49;;;;;;;2.53;1.77;;;17.40;52.20;;;;;;4953674;29;20051;-77
2022/06/03 05:35:36;;;;;;;2.55;1.75;;;17.40;52.20;;;;;;4937933;29;20028;-77
2022/06/03 05:38:33;;;;;;;2.40;2.13;;;17.50;52.20;;;;;;4953667;29;20491;-79
2022/06/03 05:44:16;;;;;;;;;;;17.40;52.30;;;;;;4938956;29;20115;-80
2022/06/03 05:47:05;;;;;;;1.60;1.50;;;17.40;52.10;;;;;;4953356;29;19911;-79
2022/06/03 05:50:03;;;;;;;2.38;1.80;;;17.40;52.30;;;;;;4938192;29;20031;-79
2022/06/03 05:52:32;;;;;;;2.03;1.77;;;17.40;52.50;;;;;;4926641;29;20070;-79
2022/06/03 05:55:23;;;;;;;2.92;1.90;;;17.40;52.40;;;;;;4954450;29;20036;-78
2022/06/03 05:58:07;;;;;;;2.28;2.05;;;17.40;52.60;;;;;;4940178;29;20220;-79
2022/06/03 06:00:36;;;;;;;2.08;1.85;;;17.40;52.50;;;;;;4953622;29;20039;-79
2022/06/03 06:03:17;;;;;;;2.60;2.03;;;17.40;52.50;;;;;;4952573;29;20031;-78
2022/06/03 06:05:58;;;;;;;2.55;1.85;;;17.40;52.60;;;;;;4953237;29;20119;-78
2022/06/03 06:08:36;;;;;;;2.15;1.75;;;17.40;52.60;;;;;;4953149;29;20051;-79
2022/06/03 06:11:03;;;;;;;2.28;2.08;;;17.40;52.60;;;;;;4955074;29;20083;-79
2022/06/03 06:14:03;;;;;;;2.38;2.00;;;17.40;52.50;;;;;;4955055;29;20023;-79
2022/06/03 06:16:45;;;;;;;2.40;2.10;;;17.40;52.70;;;;;;4953519;29;20050;-77
2022/06/03 06:19:47;;;;;;;2.67;1.95;;;17.40;52.60;;;;;;4921163;29;20115;-77
2022/06/03 06:22:26;;;;;;;2.72;1.92;;;17.50;52.80;;;;;;4937218;29;20039;-77
2022/06/03 06:24:55;;;;;;;2.25;2.00;;;17.50;52.70;;;;;;4937386;29;20047;-76
2022/06/03 06:27:28;;;;;;;3.00;2.08;;;17.50;52.70;;;;;;4936558;29;20062;-77
2022/06/03 06:30:07;;;;;;;2.17;1.80;;;17.50;52.80;;;;;;4952213;29;20027;-77
2022/06/03 06:32:52;;;;;;;2.53;1.95;;;17.50;52.80;;;;;;4952377;29;20027;-78
2022/06/03 06:35:37;;;;;;;2.65;2.13;;;17.50;52.80;;;;;;4937040;29;20520;-76
2022/06/03 06:38:20;;;;;;;2.42;2.17;;;17.50;52.80;;;;;;4935237;29;20035;-76
2022/06/03 06:41:26;;;;;;;2.45;1.88;;;17.50;52.80;;;;;;4935512;29;20469;-77
2022/06/03 06:44:17;;;;;;;2.20;2.00;;;17.50;52.90;;;;;;4935327;29;20028;-76
2022/06/03 06:46:42;;;;;;;2.47;2.05;;;17.50;53.00;;;;;;4935335;29;20151;-77
2022/06/03 06:49:25;;;;;;;2.67;2.10;;;17.50;52.80;;;;;;4936435;29;20055;-76
2022/06/03 06:52:03;;;;;;;2.10;1.80;;;17.50;53.00;;;;;;4935778;29;20110;-76
2022/06/03 06:54:48;;;;;;;2.20;2.00;;;17.50;53.00;;;;;;4936360;29;20058;-76
2022/06/03 06:57:20;;;;;;;2.30;2.10;;;17.50;53.10;;;;;;4952298;29;20031;-76
2022/06/03 06:59:55;;;;;;;4.40;2.35;;;17.50;53.00;;;;;;4937333;29;20083;-76
2022/06/03 07:02:41;;;;;;;2.05;1.85;;;17.50;53.10;;;;;;4936922;29;20042;-76
2022/06/03 07:05:24;;;;;;;3.00;2.05;;;17.50;53.10;;;;;;4936143;29;20066;-76
2022/06/03 07:08:15;;;;;;;3.33;2.40;;;17.50;53.00;;;;;;4921820;29;20361;-76
2022/06/03 07:10:47;;;;;;;2.65;2.10;;;17.60;53.10;;;;;;4953057;29;20027;-77
2022/06/03 07:13:12;;;;;;;2.35;2.08;;;17.60;53.10;;;;;;4936861;29;20031;-76
2022/06/03 07:15:58;;;;;;;2.95;2.15;;;17.60;53.10;;;;;;4952202;29;20336;-77
2022/06/03 07:22:10;;;;;;;3.03;2.20;;;17.60;53.30;;;;;;4935924;29;20054;-76
2022/06/03 07:24:46;;;;;;;2.90;2.00;;;17.60;53.20;;;;;;4936459;29;20404;-77
2022/06/03 07:27:20;;;;;;;2.88;2.25;;;17.70;53.30;;;;;;4936531;29;20357;-77
2022/06/03 07:29:54;;;;;;;2.58;2.10;;;17.70;53.30;;;;;;4918640;29;20040;-76
2022/06/03 07:32:28;;;;;;;2.30;2.10;;;17.70;53.30;;;;;;4936310;29;20082;-77
2022/06/03 07:34:56;;;;;;;2.40;2.10;;;17.80;53.30;;;;;;4936746;29;20075;-78
2022/06/03 07:37:40;;;;;;;2.10;1.88;;;17.80;53.20;;;;;;4936559;29;20281;-78
2022/06/03 07:40:11;;;;;;;2.63;2.08;;;17.90;53.40;;;;;;4936721;29;20128;-79
2022/06/03 07:43:27;;;;;;;2.35;2.10;;;17.90;53.20;;;;;;4951576;29;20027;-80
2022/06/03 07:46:00;;;;;;;2.20;2.00;;;18.00;53.30;;;;;;4896635;29;20039;-79
2022/06/03 07:48:30;;;;;;;2.30;2.08;;;18.00;53.10;;;;;;4896284;29;20080;-79
2022/06/03 07:51:04;;;;;;;2.65;2.10;;;18.10;53.10;;;;;;4917250;29;20044;-78
2022/06/03 07:54:11;;;;;;;2.97;2.10;;;18.20;53.10;;;;;;4954497;29;20039;-79
2022/06/03 07:56:38;;;;;;;3.08;2.10;;;18.20;53.00;;;;;;4884342;29;20048;-76
2022/06/03 07:59:13;;;;;;;2.15;1.95;;;18.30;53.00;;;;;;4883920;29;20029;-77
2022/06/03 08:01:42;;;;;;;2.45;2.00;;;18.30;53.00;;;;;;4921044;29;20058;-77
2022/06/03 08:04:25;;;;;;;2.70;2.13;;;18.40;52.90;;;;;;4940698;29;20042;-77
2022/06/03 08:12:38;;;;;;;2.60;2.10;;;18.60;52.80;;;;;;4938415;29;20067;-76
2022/06/03 08:15:20;;;;;;;2.13;1.92;;;18.80;52.90;;;;;;4954075;29;20032;-78
2022/06/03 08:17:48;;;;;;;2.60;2.08;;;18.80;52.80;;;;;;4937931;29;20051;-77
2022/06/03 08:20:20;;;;;;;2.83;2.13;;;18.90;52.70;;;;;;4939159;29;20097;-77
2022/06/03 08:22:46;;;;;;;2.33;1.98;;;19.00;52.70;;;;;;4937437;29;20394;-77
2022/06/03 08:25:20;;;;;;;2.13;1.92;;;19.10;52.70;;;;;;4906109;29;20055;-77
2022/06/03 08:27:48;;;;;;;2.70;1.95;;;19.10;52.70;;;;;;4954313;29;20035;-77
2022/06/03 08:30:20;;;;;;;2.53;1.90;;;19.20;52.60;;;;;;4937331;29;20064;-77
2022/06/03 08:32:51;;;;;;;2.53;2.03;;;19.30;52.60;;;;;;4938465;29;20464;-77
2022/06/03 08:35:21;;;;;;;2.15;1.90;;;19.40;52.50;;;;;;4938065;29;20038;-77
2022/06/03 08:37:49;;;;;;;2.28;2.08;;;19.50;52.50;;;;;;4937464;29;20024;-77
2022/06/03 08:40:44;;;;;;;2.47;1.92;;;19.60;52.40;;;;;;4938591;29;20566;-77
2022/06/03 08:43:24;;;;;;;2.40;1.80;;;19.70;52.50;;;;;;4938213;29;20024;-77
2022/06/03 08:46:12;;;;;;;2.50;2.00;;;19.80;52.40;;;;;;4953461;29;20027;-77
2022/06/03 08:48:42;;;;;;;2.67;2.00;;;19.90;52.30;;;;;;4937187;29;20027;-78
2022/06/03 08:51:21;;;;;;;2.80;1.90;;;20.00;52.30;;;;;;4937457;29;20413;-77
2022/06/03 08:54:05;;;;;;;3.08;1.70;;;20.10;52.40;;;;;;4937047;29;20064;-77
2022/06/03 08:56:35;;;;;;;1.63;1.48;;;20.20;52.30;;;;;;4938140;29;20078;-77
2022/06/03 08:59:15;;;;;;;1.60;1.48;;;20.30;52.20;;;;;;4936967;29;20166;-81
2022/06/03 09:01:51;;;;;;;2.42;1.70;;;20.40;52.40;;;;;;4937103;29;20128;-79
2022/06/03 09:04:20;;;;;;;3.08;2.00;;;20.50;52.60;;;;;;4937391;29;20066;-81
2022/06/03 09:07:16;;;;;;;1.98;1.77;;;20.60;52.60;;;;;;4939016;29;20019;-83
2022/06/03 09:10:27;;;;;;;2.08;1.85;;;20.80;52.70;;;;;;4937306;29;20035;-82
2022/06/03 09:13:08;;;;;;;2.70;1.88;;;21.00;52.50;;;;;;4930546;29;20044;-82
2022/06/03 09:15:38;;;;;;;1.58;1.48;;;21.10;52.00;;;;;;4936903;29;20044;-80
2022/06/03 09:18:26;;;;;;;5.60;2.13;;;21.30;51.70;;;;;;4936799;29;20032;-80
2022/06/03 09:21:01;;;;;;;1.88;1.67;;;21.40;51.30;;;;;;4936237;29;20067;-80
2022/06/03 09:23:28;;;;;;;1.75;1.65;;;21.50;51.10;;;;;;4938280;29;20047;-80
2022/06/03 09:25:57;;;;;;;1.98;1.75;;;21.60;51.00;;;;;;4938242;29;20032;-81
2022/06/03 09:28:41;;;;;;;2.00;1.80;;;21.70;51.00;;;;;;4936706;29;20083;-81
2022/06/03 09:31:10;;;;;;;2.42;1.60;;;21.90;50.80;;;;;;4920980;29;20091;-83
2022/06/03 09:33:38;;;;;;;2.47;1.50;;;22.00;50.50;;;;;;4920935;29;20358;-84
2022/06/03 09:36:13;;;;;;;1.80;1.52;;;22.10;50.20;;;;;;4937555;29;20045;-82
2022/06/03 09:38:47;;;;;;;2.10;1.67;;;22.30;50.20;;;;;;4936929;29;20437;-81
2022/06/03 09:41:13;;;;;;;;;;;22.40;50.00;;;;;;4952735;29;20020;-82
2022/06/03 09:43:45;;;;;;;1.50;1.40;;;22.40;49.80;;;;;;4936611;29;19961;-84
2022/06/03 09:46:13;;;;;;;1.85;1.50;;;22.60;49.60;;;;;;4938037;29;20067;-81
2022/06/03 09:48:41;;;;;;;2.75;1.80;;;22.70;49.40;;;;;;4952300;28;20433;-77
2022/06/03 09:51:24;;;;;;;1.80;1.70;;;22.80;49.10;;;;;;4936064;29;20114;-79
2022/06/03 09:53:50;;;;;;;1.73;1.45;;;22.90;49.10;;;;;;4952132;29;20031;-77
2022/06/03 09:56:30;;;;;;;2.13;1.67;;;23.00;48.90;;;;;;4920621;29;20449;-77
2022/06/03 09:59:01;;;;;;;1.60;1.40;;;23.10;49.00;;;;;;4937651;29;20476;-78
2022/06/03 10:01:28;;;;;;;3.28;1.55;;;23.20;48.80;;;;;;4937950;28;20058;-77
2022/06/03 10:04:00;;;;;;;1.60;1.50;;;23.30;48.60;;;;;;4920359;29;20035;-78
2022/06/03 10:15:37;;;;;;;2.03;1.83;;;23.70;47.70;;;;;;4936699;29;20036;-78
2022/06/03 10:17:31;;;;;;;1.67;1.58;;;23.80;47.50;;;;;;4936771;28;20063;-79
2022/06/03 10:19:57;;;;;;;1.85;1.58;;;23.80;47.20;;;;;;4936953;28;20031;-78
2022/06/03 10:22:24;;;;;;;2.20;1.50;;;23.90;47.10;;;;;;4919992;29;20027;-80
2022/06/03 10:24:50;;;;;;;1.63;1.48;;;24.00;46.90;;;;;;4935106;29;20047;-81
2022/06/03 10:27:18;;;;;;;2.75;1.58;;;24.10;46.80;;;;;;4919691;29;20042;-80
2022/06/03 10:29:49;;;;;;;1.60;1.40;;;24.20;46.60;;;;;;4937556;29;20052;-80
2022/06/03 10:32:19;;;;;;;1.35;1.25;;;24.30;46.20;;;;;;4936117;29;20113;-79
2022/06/03 10:34:47;;;;;;;1.55;1.35;;;24.40;45.90;;;;;;4935984;29;20035;-80
2022/06/03 10:37:18;;;;;;;1.88;1.55;;;24.40;45.70;;;;;;4935289;29;20059;-81
2022/06/03 10:39:45;;;;;;;1.67;1.50;;;24.60;45.60;;;;;;4936148;29;20028;-79
2022/06/03 10:42:19;;;;;;;1.60;1.38;;;24.60;45.40;;;;;;4938698;29;20032;-81
2022/06/03 10:44:47;;;;;;;2.10;1.60;;;24.70;45.30;;;;;;4937861;29;20126;-80
2022/06/03 10:47:19;;;;;;;1.77;1.60;;;24.80;45.20;;;;;;4951248;29;20124;-80
2022/06/03 10:49:59;;;;;;;1.70;1.60;;;24.80;45.10;;;;;;4934785;29;20106;-81
2022/06/03 11:01:23;;;;;;;1.67;1.50;;;25.20;44.10;;;;;;4950458;29;20055;-80
2022/06/03 11:03:52;;;;;;;2.08;1.45;;;25.30;43.90;;;;;;4951086;29;20114;-79
2022/06/03 11:06:22;;;;;;;2.10;1.60;;;25.40;44.00;;;;;;4950306;29;20360;-77
2022/06/03 11:09:00;;;;;;;1.50;1.30;;;25.40;43.90;;;;;;4935007;29;20028;-77
2022/06/03 11:11:35;;;;;;;2.05;1.20;;;25.50;43.80;;;;;;4935041;29;20181;-79
2022/06/03 11:14:35;;;;;;;1.35;1.20;;;25.60;43.60;;;;;;4950236;29;20032;-79
2022/06/03 11:17:04;;;;;;;1.40;1.30;;;25.60;43.40;;;;;;4935208;29;20039;-79
2022/06/03 11:19:36;;;;;;;1.45;1.30;;;25.70;43.40;;;;;;4934080;29;20460;-77
2022/06/03 11:22:25;;;;;;;1.40;1.30;;;25.70;43.10;;;;;;4934417;29;20429;-78
2022/06/03 11:25:13;;;;;;;1.00;1.00;;;25.70;42.90;;;;;;4934126;29;20047;-77
2022/06/03 11:27:48;;;;;;;1.40;1.30;;;25.70;42.70;;;;;;4933247;29;20051;-79
2022/06/03 11:30:37;;;;;;;1.27;1.17;;;25.80;42.70;;;;;;4950237;28;20457;-78
2022/06/03 11:33:09;;;;;;;1.17;1.08;;;25.80;42.50;;;;;;4935074;29;20036;-77
2022/06/03 11:36:06;;;;;;;1.50;1.13;;;25.80;42.40;;;;;;4935753;29;20035;-77
2022/06/03 11:39:13;;;;;;;1.67;1.27;;;25.80;42.10;;;;;;4922651;29;20156;-76
2022/06/03 11:41:55;;;;;;;1.20;1.10;;;25.80;42.00;;;;;;4929526;29;20044;-78
2022/06/03 11:44:27;;;;;;;1.45;1.10;;;25.80;41.90;;;;;;4934811;29;20031;-79
2022/06/03 11:47:02;;;;;;;1.67;1.17;;;25.80;41.70;;;;;;4950207;29;20040;-78
2022/06/03 11:49:28;;;;;;;2.03;1.30;;;25.80;41.50;;;;;;4952002;29;20020;-79
2022/06/03 11:51:55;;;;;;;1.30;1.20;;;25.80;41.50;;;;;;4953614;29;20107;-79
2022/06/03 11:54:24;;;;;;;1.25;1.15;;;25.80;41.50;;;;;;4934406;29;20035;-79
2022/06/03 11:56:51;;;;;;;2.17;1.40;;;25.80;41.30;;;;;;4936107;28;20024;-81
2022/06/03 11:59:16;;;;;;;1.30;1.10;;;25.90;41.40;;;;;;4933701;29;20353;-80
2022/06/03 12:01:52;;;;;;;1.77;1.20;;;25.90;41.30;;;;;;4950301;29;20048;-81
2022/06/03 12:04:43;;;;;;;1.02;1.00;;;25.90;41.70;;;;;;4950509;29;20039;-77
2022/06/03 12:07:17;;;;;;;0.90;0.90;;;25.90;41.00;;;;;;4949573;29;20039;-77
2022/06/03 12:10:10;;;;;;;1.92;1.30;;;25.90;41.00;;;;;;4933470;29;20193;-77
2022/06/03 12:13:21;;;;;;;1.33;1.20;;;25.90;40.90;;;;;;4951310;29;20102;-87
2022/06/03 12:15:52;;;;;;;1.08;0.98;;;25.90;41.10;;;;;;4935095;29;20036;-76
2022/06/03 12:18:30;;;;;;;2.08;1.20;;;26.00;41.10;;;;;;4950686;29;20469;-77
2022/06/03 12:20:57;;;;;;;1.15;1.10;;;26.00;41.30;;;;;;4950281;29;20570;-77
2022/06/03 12:23:23;;;;;;;1.30;1.20;;;26.00;41.30;;;;;;4934276;29;20147;-76
2022/06/03 12:25:51;;;;;;;1.10;1.00;;;26.10;41.30;;;;;;4949976;29;20051;-75
2022/06/03 12:28:35;;;;;;;1.00;1.00;;;26.00;41.00;;;;;;4935299;29;20031;-77
2022/06/03 12:31:24;;;;;;;1.08;1.05;;;26.00;40.90;;;;;;4950330;29;20024;-77
2022/06/03 12:34:09;;;;;;;1.20;1.10;;;26.10;40.90;;;;;;4935903;29;20024;-82
2022/06/03 12:36:39;;;;;;;1.10;1.00;;;26.10;41.00;;;;;;4936161;29;20035;-82
2022/06/03 12:39:08;;;;;;;1.30;1.10;;;26.10;41.00;;;;;;4954974;29;20477;-81
2022/06/03 12:41:46;;;;;;;0.90;0.90;;;26.10;40.90;;;;;;4954286;29;20023;-83
2022/06/03 12:44:35;;;;;;;1.02;1.00;;;26.10;40.90;;;;;;4953738;29;20031;-80
2022/06/03 12:47:29;;;;;;;1.20;1.10;;;26.10;40.90;;;;;;4895566;29;20040;-81
2022/06/03 12:49:57;;;;;;;1.20;1.10;;;26.20;40.90;;;;;;4953421;29;20032;-75
2022/06/03 12:52:36;;;;;;;2.80;0.90;;;26.20;40.60;;;;;;4937600;29;20024;-77
2022/06/03 12:55:23;;;;;;;0.98;0.88;;;26.20;40.30;;;;;;4937838;29;20031;-76
2022/06/03 12:57:52;;;;;;;1.33;1.23;;;26.20;40.30;;;;;;4938009;29;20110;-75
2022/06/03 13:00:18;;;;;;;1.23;1.13;;;26.20;40.10;;;;;;4953206;29;20103;-75
2022/06/03 13:03:27;;;;;;;1.50;1.20;;;26.20;40.10;;;;;;4939367;29;20453;-75
2022/06/03 13:05:58;;;;;;;1.27;1.17;;;26.20;40.30;;;;;;4952419;28;20039;-75
2022/06/03 13:08:26;;;;;;;1.30;1.10;;;26.30;41.00;;;;;;4938453;29;20031;-77
2022/06/03 13:10:55;;;;;;;1.50;1.15;;;26.30;40.40;;;;;;4938415;29;20106;-79
2022/06/03 13:13:49;;;;;;;1.58;1.20;;;26.30;40.40;;;;;;4953445;29;20036;-81
2022/06/03 13:16:19;;;;;;;1.55;1.30;;;26.30;40.50;;;;;;4939036;29;20099;-80
2022/06/03 13:18:47;;;;;;;1.67;1.20;;;26.30;40.50;;;;;;4937186;29;20024;-82
2022/06/03 13:21:20;;;;;;;1.20;1.10;;;26.30;40.50;;;;;;4936731;29;20019;-82
2022/06/03 13:24:15;;;;;;;1.05;1.05;;;26.30;40.50;;;;;;4936872;29;20091;-81
2022/06/03 13:26:41;;;;;;;1.42;1.33;;;26.30;40.50;;;;;;4927385;29;20044;-78
2022/06/03 13:29:08;;;;;;;1.38;1.27;;;26.30;41.10;;;;;;4952697;29;20123;-79
2022/06/03 13:31:49;;;;;;;1.50;1.40;;;26.30;40.40;;;;;;4936667;29;20135;-81
2022/06/03 13:34:17;;;;;;;1.23;1.13;;;26.30;40.30;;;;;;4938300;29;20048;-81
2022/06/03 13:36:49;;;;;;;1.15;1.08;;;26.30;40.30;;;;;;4920857;29;20099;-78
2022/06/03 13:39:24;;;;;;;1.55;1.30;;;26.40;41.10;;;;;;4937856;29;20517;-78
2022/06/03 13:45:08;;;;;;;1.20;1.10;;;26.40;40.30;;;;;;4937521;29;20032;-78
2022/06/03 13:47:36;;;;;;;1.10;1.10;;;26.40;40.40;;;;;;4952268;28;20024;-77
2022/06/03 13:50:05;;;;;;;1.52;1.30;;;26.50;40.40;;;;;;4938017;29;20098;-78
2022/06/03 13:52:34;;;;;;;1.95;1.27;;;26.50;40.40;;;;;;4937399;29;20057;-76
2022/06/03 13:55:15;;;;;;;1.52;1.10;;;26.50;40.40;;;;;;4920564;29;20027;-76
2022/06/03 13:57:47;;;;;;;1.40;1.10;;;26.50;40.40;;;;;;4938105;29;20520;-82
2022/06/03 14:00:19;;;;;;;1.30;1.20;;;26.60;40.40;;;;;;4936776;29;20441;-79
2022/06/03 14:02:47;;;;;;;1.23;1.13;;;26.60;40.30;;;;;;4936640;29;20115;-75
2022/06/03 14:05:51;;;;;;;1.38;1.27;;;26.60;40.30;;;;;;4936600;29;20480;-75
2022/06/03 14:08:19;;;;;;;1.10;1.05;;;26.60;40.30;;;;;;4931420;29;20036;-75
2022/06/03 14:11:08;;;;;;;1.20;1.10;;;26.60;40.00;;;;;;4952116;29;20023;-80
2022/06/03 14:13:51;;;;;;;1.38;1.27;;;26.70;40.00;;;;;;4936505;29;20030;-81
2022/06/03 14:16:23;;;;;;;1.40;1.10;;;26.70;39.80;;;;;;4938224;29;20031;-81
2022/06/03 14:19:12;;;;;;;1.17;1.08;;;26.70;39.60;;;;;;4953270;29;20527;-77
2022/06/03 14:21:37;;;;;;;1.55;1.13;;;26.70;39.60;;;;;;4938880;29;20035;-79
2022/06/03 14:24:31;;;;;;;1.20;1.00;;;26.70;39.60;;;;;;4956436;28;20059;-80
2022/06/03 14:27:11;;;;;;;1.00;0.90;;;26.80;39.70;;;;;;4936965;29;20027;-79
2022/06/03 14:29:53;;;;;;;2.22;1.23;;;26.80;39.70;;;;;;4936217;29;20024;-80
2022/06/03 14:32:22;;;;;;;1.30;1.20;;;26.80;39.70;;;;;;4937639;29;20028;-81
2022/06/03 14:35:10;;;;;;;1.30;1.20;;;26.90;40.50;;;;;;4936367;29;20031;-82